createdAt,value
2022-12-18T00:06:44.949Z,56
2022-12-18T00:34:58.634Z,52
2022-12-18T01:03:08.202Z,52
2022-12-18T01:31:20.472Z,55
2022-12-18T01:59:24.094Z,47
2022-12-18T02:27:40.732Z,50
2022-12-18T02:55:55.045Z,52
2022-12-18T03:24:05.151Z,47
2022-12-18T03:52:16.057Z,44
2022-12-18T04:20:19.797Z,47
2022-12-18T04:48:31.743Z,45
2022-12-18T05:16:44.262Z,39
2022-12-18T05:44:56.976Z,43
2022-12-18T06:12:59.736Z,42
2022-12-18T06:41:07.654Z,44
2022-12-18T07:09:10.900Z,40
2022-12-18T07:37:27.508Z,43
2022-12-18T08:05:45.113Z,41
2022-12-18T08:33:45.115Z,44
2022-12-18T09:01:55.828Z,47
2022-12-18T09:30:09.250Z,44
2022-12-18T09:58:38.183Z,47
2022-12-18T10:26:32.427Z,50
2022-12-18T11:23:34.252Z,46
2022-12-18T11:52:07.506Z,46
2022-12-18T12:20:52.088Z,50
2022-12-18T12:49:42.535Z,53
2022-12-18T13:18:23.452Z,62
2022-12-18T13:46:46.942Z,61
2022-12-18T14:15:28.371Z,61
2022-12-18T14:44:12.558Z,61
2022-12-18T15:12:55.197Z,66
2022-12-18T15:41:44.933Z,63
2022-12-18T16:10:33.745Z,67
2022-12-18T16:39:22.402Z,72
2022-12-18T17:07:45.044Z,72
2022-12-18T17:36:34.158Z,75
2022-12-18T18:05:21.800Z,72
2022-12-18T18:33:32.213Z,72
2022-12-18T19:01:47.473Z,74
2022-12-18T19:29:52.874Z,74
2022-12-18T19:58:04.378Z,75
2022-12-18T20:26:14.034Z,74
2022-12-18T20:54:21.544Z,77
2022-12-18T21:23:21.102Z,72
2022-12-18T21:51:39.743Z,73
2022-12-18T22:20:42.973Z,74
2022-12-18T22:49:13.902Z,72
2022-12-18T23:17:54.075Z,74
2022-12-18T23:46:19.777Z,75
